MAN weather

Manchester Airport
Manchester, England, United Kingdom

Public forecast

Using degrees Celsius for public forecast. Weather courtesy of forecast.io.

Current aviation weather report (METAR) for Manchester Airport

Retrieved 2019/10/21 23:20 UTC (19 minutes ago):

EGCC 212320Z AUTO 17003KT 9999 BKN037 04/03 Q1023 NOSIG

Aviation forecast (TAF) for Manchester Airport

Retrieved 2019/10/21 18:00 UTC (6 hours ago):

TAF EGCC 211705Z 2118/2224 VRB03KT 9999 SCT040 TEMPO 2119/2210 8000 PROB30 2123/2210 4000 BR MIFG BECMG 2206/2209 23010KT